sensor_id;sensor_type;location;lat;lon;timestamp;P1;durP1;ratioP1;P2;durP2;ratioP2
71038;SDS011;58692;43.212;27.908;2023-08-21T00:01:56;17.88;;;5.07;;
71038;SDS011;58692;43.212;27.908;2023-08-21T00:04:23;14.67;;;4.93;;
71038;SDS011;58692;43.212;27.908;2023-08-21T00:06:49;13.23;;;5.05;;
71038;SDS011;58692;43.212;27.908;2023-08-21T00:09:14;14.97;;;5.50;;
71038;SDS011;58692;43.212;27.908;2023-08-21T00:11:40;10.13;;;5.20;;
71038;SDS011;58692;43.212;27.908;2023-08-21T00:14:05;10.52;;;5.60;;
71038;SDS011;58692;43.212;27.908;2023-08-21T00:16:31;11.63;;;5.43;;
71038;SDS011;58692;43.212;27.908;2023-08-21T00:18:57;13.40;;;5.47;;
71038;SDS011;58692;43.212;27.908;2023-08-21T00:21:22;13.80;;;5.40;;
71038;SDS011;58692;43.212;27.908;2023-08-21T00:23:48;15.80;;;5.87;;
71038;SDS011;58692;43.212;27.908;2023-08-21T00:26:13;17.90;;;5.77;;
71038;SDS011;58692;43.212;27.908;2023-08-21T00:28:39;19.47;;;6.07;;
71038;SDS011;58692;43.212;27.908;2023-08-21T00:31:05;17.67;;;5.37;;
71038;SDS011;58692;43.212;27.908;2023-08-21T00:33:31;14.27;;;6.13;;
71038;SDS011;58692;43.212;27.908;2023-08-21T00:35:57;19.85;;;5.78;;
71038;SDS011;58692;43.212;27.908;2023-08-21T00:38:23;18.30;;;6.03;;
71038;SDS011;58692;43.212;27.908;2023-08-21T00:40:48;17.50;;;6.25;;
71038;SDS011;58692;43.212;27.908;2023-08-21T00:43:14;19.60;;;6.63;;
71038;SDS011;58692;43.212;27.908;2023-08-21T00:45:41;17.40;;;6.07;;
71038;SDS011;58692;43.212;27.908;2023-08-21T00:48:08;16.38;;;6.18;;
71038;SDS011;58692;43.212;27.908;2023-08-21T00:50:35;19.77;;;6.20;;
71038;SDS011;58692;43.212;27.908;2023-08-21T00:53:01;19.95;;;6.15;;
71038;SDS011;58692;43.212;27.908;2023-08-21T00:55:28;13.47;;;5.63;;
71038;SDS011;58692;43.212;27.908;2023-08-21T00:57:54;16.13;;;5.70;;
71038;SDS011;58692;43.212;27.908;2023-08-21T01:00:19;19.27;;;5.70;;
71038;SDS011;58692;43.212;27.908;2023-08-21T01:02:47;17.10;;;5.90;;
71038;SDS011;58692;43.212;27.908;2023-08-21T01:05:12;19.03;;;5.70;;
71038;SDS011;58692;43.212;27.908;2023-08-21T01:07:44;15.80;;;5.50;;
71038;SDS011;58692;43.212;27.908;2023-08-21T01:10:20;20.52;;;5.80;;
71038;SDS011;58692;43.212;27.908;2023-08-21T01:13:09;22.15;;;6.28;;
71038;SDS011;58692;43.212;27.908;2023-08-21T01:15:44;17.25;;;6.22;;
71038;SDS011;58692;43.212;27.908;2023-08-21T01:18:12;15.55;;;6.10;;
71038;SDS011;58692;43.212;27.908;2023-08-21T01:20:38;23.17;;;6.23;;
71038;SDS011;58692;43.212;27.908;2023-08-21T01:23:05;18.40;;;6.60;;
71038;SDS011;58692;43.212;27.908;2023-08-21T01:25:31;26.05;;;6.60;;
71038;SDS011;58692;43.212;27.908;2023-08-21T01:27:57;19.65;;;6.55;;
71038;SDS011;58692;43.212;27.908;2023-08-21T01:30:23;20.60;;;6.73;;
71038;SDS011;58692;43.212;27.908;2023-08-21T01:32:59;15.30;;;6.10;;
71038;SDS011;58692;43.212;27.908;2023-08-21T01:35:36;19.17;;;6.30;;
71038;SDS011;58692;43.212;27.908;2023-08-21T01:38:02;19.33;;;6.40;;
71038;SDS011;58692;43.212;27.908;2023-08-21T01:40:28;17.73;;;6.30;;
71038;SDS011;58692;43.212;27.908;2023-08-21T01:42:54;14.03;;;5.80;;
71038;SDS011;58692;43.212;27.908;2023-08-21T01:45:20;16.23;;;5.68;;
71038;SDS011;58692;43.212;27.908;2023-08-21T01:47:46;17.08;;;5.93;;
71038;SDS011;58692;43.212;27.908;2023-08-21T01:50:12;15.37;;;5.77;;
71038;SDS011;58692;43.212;27.908;2023-08-21T01:52:37;15.67;;;5.20;;
71038;SDS011;58692;43.212;27.908;2023-08-21T01:55:03;16.15;;;5.43;;
71038;SDS011;58692;43.212;27.908;2023-08-21T01:57:29;14.60;;;5.55;;
71038;SDS011;58692;43.212;27.908;2023-08-21T01:59:54;14.67;;;5.60;;
71038;SDS011;58692;43.212;27.908;2023-08-21T02:02:20;15.17;;;5.60;;
71038;SDS011;58692;43.212;27.908;2023-08-21T02:04:45;13.63;;;5.50;;
71038;SDS011;58692;43.212;27.908;2023-08-21T02:07:11;13.10;;;5.87;;
71038;SDS011;58692;43.212;27.908;2023-08-21T02:09:36;12.77;;;6.30;;
71038;SDS011;58692;43.212;27.908;2023-08-21T02:12:02;17.63;;;7.47;;
71038;SDS011;58692;43.212;27.908;2023-08-21T02:14:28;19.63;;;8.57;;
71038;SDS011;58692;43.212;27.908;2023-08-21T02:16:54;18.07;;;8.73;;
71038;SDS011;58692;43.212;27.908;2023-08-21T02:19:19;17.00;;;7.50;;
71038;SDS011;58692;43.212;27.908;2023-08-21T02:21:44;13.73;;;7.27;;
71038;SDS011;58692;43.212;27.908;2023-08-21T02:24:10;15.33;;;6.40;;
71038;SDS011;58692;43.212;27.908;2023-08-21T02:26:35;13.10;;;6.37;;
71038;SDS011;58692;43.212;27.908;2023-08-21T02:29:01;13.55;;;5.40;;
71038;SDS011;58692;43.212;27.908;2023-08-21T02:31:28;12.20;;;4.80;;
71038;SDS011;58692;43.212;27.908;2023-08-21T02:33:54;9.95;;;4.82;;
71038;SDS011;58692;43.212;27.908;2023-08-21T02:36:19;13.20;;;4.83;;
71038;SDS011;58692;43.212;27.908;2023-08-21T02:38:45;12.20;;;5.13;;
71038;SDS011;58692;43.212;27.908;2023-08-21T02:41:10;13.48;;;5.25;;
71038;SDS011;58692;43.212;27.908;2023-08-21T02:43:36;13.10;;;5.13;;
71038;SDS011;58692;43.212;27.908;2023-08-21T02:46:01;14.90;;;6.03;;
71038;SDS011;58692;43.212;27.908;2023-08-21T02:48:27;13.73;;;5.50;;
71038;SDS011;58692;43.212;27.908;2023-08-21T02:50:52;12.17;;;5.30;;
71038;SDS011;58692;43.212;27.908;2023-08-21T02:53:18;11.00;;;5.13;;
71038;SDS011;58692;43.212;27.908;2023-08-21T02:55:43;11.13;;;5.53;;
71038;SDS011;58692;43.212;27.908;2023-08-21T02:58:08;10.57;;;5.50;;
71038;SDS011;58692;43.212;27.908;2023-08-21T03:00:35;17.47;;;5.60;;
71038;SDS011;58692;43.212;27.908;2023-08-21T03:03:01;16.70;;;5.82;;
71038;SDS011;58692;43.212;27.908;2023-08-21T03:05:26;12.68;;;5.88;;
71038;SDS011;58692;43.212;27.908;2023-08-21T03:07:52;13.67;;;5.90;;
71038;SDS011;58692;43.212;27.908;2023-08-21T03:10:18;19.27;;;6.77;;
71038;SDS011;58692;43.212;27.908;2023-08-21T03:12:44;16.08;;;6.10;;
71038;SDS011;58692;43.212;27.908;2023-08-21T03:15:09;13.80;;;6.57;;
71038;SDS011;58692;43.212;27.908;2023-08-21T03:17:35;14.83;;;6.40;;
71038;SDS011;58692;43.212;27.908;2023-08-21T03:20:01;13.37;;;6.97;;
71038;SDS011;58692;43.212;27.908;2023-08-21T03:22:30;14.95;;;6.32;;
71038;SDS011;58692;43.212;27.908;2023-08-21T03:24:56;16.50;;;6.22;;
71038;SDS011;58692;43.212;27.908;2023-08-21T03:27:22;15.38;;;6.20;;
71038;SDS011;58692;43.212;27.908;2023-08-21T03:29:49;17.60;;;6.57;;
71038;SDS011;58692;43.212;27.908;2023-08-21T03:32:15;14.83;;;6.27;;
71038;SDS011;58692;43.212;27.908;2023-08-21T03:34:41;21.77;;;6.55;;
71038;SDS011;58692;43.212;27.908;2023-08-21T03:37:07;16.67;;;6.07;;
71038;SDS011;58692;43.212;27.908;2023-08-21T03:39:32;13.53;;;5.80;;
71038;SDS011;58692;43.212;27.908;2023-08-21T03:41:58;15.00;;;6.28;;
71038;SDS011;58692;43.212;27.908;2023-08-21T03:44:23;17.17;;;6.27;;
71038;SDS011;58692;43.212;27.908;2023-08-21T03:46:49;14.73;;;6.32;;
71038;SDS011;58692;43.212;27.908;2023-08-21T03:49:15;13.47;;;5.70;;
71038;SDS011;58692;43.212;27.908;2023-08-21T03:51:40;13.75;;;5.72;;
71038;SDS011;58692;43.212;27.908;2023-08-21T03:54:06;15.57;;;6.03;;
71038;SDS011;58692;43.212;27.908;2023-08-21T03:56:31;11.43;;;5.80;;
71038;SDS011;58692;43.212;27.908;2023-08-21T03:58:57;11.23;;;6.03;;
71038;SDS011;58692;43.212;27.908;2023-08-21T04:01:22;15.23;;;6.20;;
71038;SDS011;58692;43.212;27.908;2023-08-21T04:03:48;12.73;;;5.90;;
71038;SDS011;58692;43.212;27.908;2023-08-21T04:06:13;15.33;;;5.93;;
71038;SDS011;58692;43.212;27.908;2023-08-21T04:08:39;16.83;;;5.93;;
71038;SDS011;58692;43.212;27.908;2023-08-21T04:11:05;15.63;;;5.70;;
71038;SDS011;58692;43.212;27.908;2023-08-21T04:13:31;16.93;;;6.03;;
71038;SDS011;58692;43.212;27.908;2023-08-21T04:15:56;11.48;;;5.80;;
71038;SDS011;58692;43.212;27.908;2023-08-21T04:18:22;14.70;;;5.93;;
71038;SDS011;58692;43.212;27.908;2023-08-21T04:20:48;14.02;;;5.63;;
71038;SDS011;58692;43.212;27.908;2023-08-21T04:23:14;11.53;;;6.23;;
71038;SDS011;58692;43.212;27.908;2023-08-21T04:25:39;11.73;;;5.57;;
71038;SDS011;58692;43.212;27.908;2023-08-21T04:28:05;12.70;;;6.10;;
71038;SDS011;58692;43.212;27.908;2023-08-21T04:30:32;13.32;;;5.97;;
71038;SDS011;58692;43.212;27.908;2023-08-21T04:32:58;13.05;;;6.50;;
71038;SDS011;58692;43.212;27.908;2023-08-21T04:35:24;16.27;;;6.47;;
71038;SDS011;58692;43.212;27.908;2023-08-21T04:37:49;10.65;;;6.18;;
71038;SDS011;58692;43.212;27.908;2023-08-21T04:40:15;12.90;;;6.50;;
71038;SDS011;58692;43.212;27.908;2023-08-21T04:42:42;17.15;;;6.13;;
71038;SDS011;58692;43.212;27.908;2023-08-21T04:45:09;14.88;;;6.65;;
71038;SDS011;58692;43.212;27.908;2023-08-21T04:47:34;14.27;;;6.93;;
71038;SDS011;58692;43.212;27.908;2023-08-21T04:50:00;13.50;;;6.77;;
71038;SDS011;58692;43.212;27.908;2023-08-21T04:52:26;16.30;;;7.07;;
71038;SDS011;58692;43.212;27.908;2023-08-21T04:54:51;13.10;;;6.37;;
71038;SDS011;58692;43.212;27.908;2023-08-21T04:57:17;15.80;;;7.22;;
71038;SDS011;58692;43.212;27.908;2023-08-21T04:59:43;14.75;;;6.88;;
71038;SDS011;58692;43.212;27.908;2023-08-21T05:02:09;15.50;;;7.20;;
71038;SDS011;58692;43.212;27.908;2023-08-21T05:04:35;14.27;;;6.80;;
71038;SDS011;58692;43.212;27.908;2023-08-21T05:07:02;13.48;;;7.43;;
71038;SDS011;58692;43.212;27.908;2023-08-21T05:09:28;13.63;;;6.53;;
71038;SDS011;58692;43.212;27.908;2023-08-21T05:11:54;11.52;;;6.45;;
71038;SDS011;58692;43.212;27.908;2023-08-21T05:14:20;9.13;;;6.80;;
71038;SDS011;58692;43.212;27.908;2023-08-21T05:16:46;13.77;;;6.75;;
71038;SDS011;58692;43.212;27.908;2023-08-21T05:19:12;16.87;;;6.53;;
71038;SDS011;58692;43.212;27.908;2023-08-21T05:21:37;16.23;;;7.03;;
71038;SDS011;58692;43.212;27.908;2023-08-21T05:24:03;13.90;;;6.80;;
71038;SDS011;58692;43.212;27.908;2023-08-21T05:26:28;15.45;;;7.05;;
71038;SDS011;58692;43.212;27.908;2023-08-21T05:28:54;12.30;;;6.53;;
71038;SDS011;58692;43.212;27.908;2023-08-21T05:31:19;14.67;;;7.37;;
71038;SDS011;58692;43.212;27.908;2023-08-21T05:33:45;14.93;;;7.40;;
71038;SDS011;58692;43.212;27.908;2023-08-21T05:36:10;13.37;;;6.90;;
71038;SDS011;58692;43.212;27.908;2023-08-21T05:38:36;17.17;;;7.03;;
71038;SDS011;58692;43.212;27.908;2023-08-21T05:41:01;15.60;;;7.67;;
71038;SDS011;58692;43.212;27.908;2023-08-21T05:43:27;17.33;;;8.20;;
71038;SDS011;58692;43.212;27.908;2023-08-21T05:45:52;15.67;;;7.77;;
71038;SDS011;58692;43.212;27.908;2023-08-21T05:48:18;13.87;;;7.07;;
71038;SDS011;58692;43.212;27.908;2023-08-21T05:50:43;15.57;;;7.87;;
71038;SDS011;58692;43.212;27.908;2023-08-21T05:53:09;17.33;;;7.77;;
71038;SDS011;58692;43.212;27.908;2023-08-21T05:55:36;18.77;;;7.57;;
71038;SDS011;58692;43.212;27.908;2023-08-21T05:58:02;11.68;;;7.13;;
71038;SDS011;58692;43.212;27.908;2023-08-21T06:00:28;13.25;;;7.13;;
71038;SDS011;58692;43.212;27.908;2023-08-21T06:02:54;17.90;;;7.70;;
71038;SDS011;58692;43.212;27.908;2023-08-21T06:05:19;15.05;;;7.82;;
71038;SDS011;58692;43.212;27.908;2023-08-21T06:07:45;18.63;;;7.43;;
71038;SDS011;58692;43.212;27.908;2023-08-21T06:10:10;14.70;;;6.93;;
71038;SDS011;58692;43.212;27.908;2023-08-21T06:12:39;14.48;;;7.38;;
71038;SDS011;58692;43.212;27.908;2023-08-21T06:15:06;13.43;;;7.43;;
71038;SDS011;58692;43.212;27.908;2023-08-21T06:17:34;15.77;;;7.45;;
71038;SDS011;58692;43.212;27.908;2023-08-21T06:20:00;14.70;;;7.15;;
71038;SDS011;58692;43.212;27.908;2023-08-21T06:22:25;12.77;;;7.50;;
71038;SDS011;58692;43.212;27.908;2023-08-21T06:24:51;14.17;;;7.40;;
71038;SDS011;58692;43.212;27.908;2023-08-21T06:27:16;13.02;;;7.53;;
71038;SDS011;58692;43.212;27.908;2023-08-21T06:29:42;15.30;;;6.17;;
71038;SDS011;58692;43.212;27.908;2023-08-21T06:32:07;14.23;;;7.20;;
71038;SDS011;58692;43.212;27.908;2023-08-21T06:34:33;13.93;;;6.70;;
71038;SDS011;58692;43.212;27.908;2023-08-21T06:36:58;15.17;;;7.40;;
71038;SDS011;58692;43.212;27.908;2023-08-21T06:39:25;14.83;;;7.60;;
71038;SDS011;58692;43.212;27.908;2023-08-21T06:41:51;12.80;;;7.13;;
71038;SDS011;58692;43.212;27.908;2023-08-21T06:44:16;13.35;;;6.82;;
71038;SDS011;58692;43.212;27.908;2023-08-21T06:46:42;16.10;;;7.10;;
71038;SDS011;58692;43.212;27.908;2023-08-21T06:49:08;14.07;;;7.50;;
71038;SDS011;58692;43.212;27.908;2023-08-21T06:51:33;13.03;;;6.90;;
71038;SDS011;58692;43.212;27.908;2023-08-21T06:53:59;14.88;;;7.18;;
71038;SDS011;58692;43.212;27.908;2023-08-21T06:56:24;12.27;;;6.67;;
71038;SDS011;58692;43.212;27.908;2023-08-21T06:58:50;15.07;;;6.87;;
71038;SDS011;58692;43.212;27.908;2023-08-21T07:01:15;13.02;;;6.85;;
71038;SDS011;58692;43.212;27.908;2023-08-21T07:03:41;11.43;;;6.53;;
71038;SDS011;58692;43.212;27.908;2023-08-21T07:06:08;13.70;;;6.30;;
71038;SDS011;58692;43.212;27.908;2023-08-21T07:08:33;15.05;;;6.68;;
71038;SDS011;58692;43.212;27.908;2023-08-21T07:11:01;13.70;;;6.67;;
71038;SDS011;58692;43.212;27.908;2023-08-21T07:13:29;14.32;;;7.03;;
71038;SDS011;58692;43.212;27.908;2023-08-21T07:15:55;15.63;;;7.00;;
71038;SDS011;58692;43.212;27.908;2023-08-21T07:18:20;12.63;;;6.43;;
71038;SDS011;58692;43.212;27.908;2023-08-21T07:20:46;10.90;;;6.53;;
71038;SDS011;58692;43.212;27.908;2023-08-21T07:23:11;14.40;;;6.95;;
71038;SDS011;58692;43.212;27.908;2023-08-21T07:25:37;14.27;;;6.57;;
71038;SDS011;58692;43.212;27.908;2023-08-21T07:28:02;19.97;;;6.97;;
71038;SDS011;58692;43.212;27.908;2023-08-21T07:30:28;14.38;;;7.20;;
71038;SDS011;58692;43.212;27.908;2023-08-21T07:32:54;14.47;;;7.23;;
71038;SDS011;58692;43.212;27.908;2023-08-21T07:35:19;11.50;;;6.53;;
71038;SDS011;58692;43.212;27.908;2023-08-21T07:37:45;14.20;;;6.90;;
71038;SDS011;58692;43.212;27.908;2023-08-21T07:40:11;16.92;;;7.18;;
71038;SDS011;58692;43.212;27.908;2023-08-21T07:42:37;15.20;;;7.03;;
71038;SDS011;58692;43.212;27.908;2023-08-21T07:45:02;13.30;;;7.35;;
71038;SDS011;58692;43.212;27.908;2023-08-21T07:47:29;14.43;;;6.97;;
71038;SDS011;58692;43.212;27.908;2023-08-21T07:49:55;15.32;;;7.07;;
71038;SDS011;58692;43.212;27.908;2023-08-21T07:52:21;14.18;;;7.18;;
71038;SDS011;58692;43.212;27.908;2023-08-21T07:54:50;11.07;;;6.93;;
71038;SDS011;58692;43.212;27.908;2023-08-21T07:57:16;14.23;;;6.37;;
71038;SDS011;58692;43.212;27.908;2023-08-21T07:59:42;15.25;;;7.30;;
71038;SDS011;58692;43.212;27.908;2023-08-21T08:02:08;13.20;;;6.77;;
71038;SDS011;58692;43.212;27.908;2023-08-21T08:04:35;14.77;;;6.78;;
71038;SDS011;58692;43.212;27.908;2023-08-21T08:07:00;13.85;;;6.75;;
71038;SDS011;58692;43.212;27.908;2023-08-21T08:09:26;15.97;;;7.20;;
71038;SDS011;58692;43.212;27.908;2023-08-21T08:11:51;13.10;;;6.43;;
71038;SDS011;58692;43.212;27.908;2023-08-21T08:14:17;14.43;;;6.80;;
71038;SDS011;58692;43.212;27.908;2023-08-21T08:16:42;11.57;;;7.40;;
71038;SDS011;58692;43.212;27.908;2023-08-21T08:19:08;12.60;;;6.57;;
71038;SDS011;58692;43.212;27.908;2023-08-21T08:21:33;15.27;;;7.10;;
71038;SDS011;58692;43.212;27.908;2023-08-21T08:23:59;17.23;;;7.23;;
71038;SDS011;58692;43.212;27.908;2023-08-21T08:26:24;10.90;;;6.40;;
71038;SDS011;58692;43.212;27.908;2023-08-21T08:28:50;13.03;;;6.87;;
71038;SDS011;58692;43.212;27.908;2023-08-21T08:31:15;12.43;;;6.50;;
71038;SDS011;58692;43.212;27.908;2023-08-21T08:33:41;11.73;;;6.53;;
71038;SDS011;58692;43.212;27.908;2023-08-21T08:36:07;12.90;;;7.07;;
71038;SDS011;58692;43.212;27.908;2023-08-21T08:38:33;11.05;;;5.95;;
71038;SDS011;58692;43.212;27.908;2023-08-21T08:40:58;14.27;;;6.80;;
71038;SDS011;58692;43.212;27.908;2023-08-21T08:43:27;11.38;;;6.32;;
71038;SDS011;58692;43.212;27.908;2023-08-21T08:45:52;15.27;;;6.27;;
71038;SDS011;58692;43.212;27.908;2023-08-21T08:48:21;15.07;;;7.15;;
71038;SDS011;58692;43.212;27.908;2023-08-21T08:50:47;13.13;;;7.10;;
71038;SDS011;58692;43.212;27.908;2023-08-21T08:53:16;11.30;;;6.68;;
71038;SDS011;58692;43.212;27.908;2023-08-21T08:55:44;10.80;;;6.25;;
71038;SDS011;58692;43.212;27.908;2023-08-21T08:58:10;11.43;;;6.33;;
71038;SDS011;58692;43.212;27.908;2023-08-21T09:00:35;12.98;;;6.20;;
71038;SDS011;58692;43.212;27.908;2023-08-21T09:03:01;11.10;;;5.63;;
71038;SDS011;58692;43.212;27.908;2023-08-21T09:05:28;9.27;;;5.22;;
71038;SDS011;58692;43.212;27.908;2023-08-21T09:10:36;10.38;;;5.82;;
71038;SDS011;58692;43.212;27.908;2023-08-21T09:13:12;9.93;;;5.83;;
71038;SDS011;58692;43.212;27.908;2023-08-21T09:15:41;12.57;;;5.30;;
71038;SDS011;58692;43.212;27.908;2023-08-21T09:18:09;9.85;;;5.68;;
71038;SDS011;58692;43.212;27.908;2023-08-21T09:20:35;11.40;;;6.00;;
71038;SDS011;58692;43.212;27.908;2023-08-21T09:23:01;11.57;;;5.90;;
71038;SDS011;58692;43.212;27.908;2023-08-21T09:25:28;12.50;;;5.70;;
71038;SDS011;58692;43.212;27.908;2023-08-21T09:27:59;10.32;;;5.70;;
71038;SDS011;58692;43.212;27.908;2023-08-21T09:30:24;10.67;;;5.53;;
71038;SDS011;58692;43.212;27.908;2023-08-21T09:32:52;11.30;;;5.50;;
71038;SDS011;58692;43.212;27.908;2023-08-21T09:35:22;10.18;;;5.43;;
71038;SDS011;58692;43.212;27.908;2023-08-21T09:37:49;12.02;;;5.75;;
71038;SDS011;58692;43.212;27.908;2023-08-21T09:40:15;11.57;;;5.78;;
71038;SDS011;58692;43.212;27.908;2023-08-21T09:42:41;10.53;;;5.60;;
71038;SDS011;58692;43.212;27.908;2023-08-21T09:45:07;8.80;;;5.43;;
71038;SDS011;58692;43.212;27.908;2023-08-21T09:47:33;14.75;;;5.47;;
71038;SDS011;58692;43.212;27.908;2023-08-21T09:49:59;10.90;;;5.10;;
71038;SDS011;58692;43.212;27.908;2023-08-21T09:52:25;10.70;;;5.78;;
71038;SDS011;58692;43.212;27.908;2023-08-21T09:54:52;9.30;;;5.43;;
71038;SDS011;58692;43.212;27.908;2023-08-21T09:57:18;12.18;;;5.18;;
71038;SDS011;58692;43.212;27.908;2023-08-21T09:59:48;10.90;;;4.95;;
71038;SDS011;58692;43.212;27.908;2023-08-21T10:02:17;12.37;;;5.17;;
71038;SDS011;58692;43.212;27.908;2023-08-21T10:04:43;12.38;;;5.50;;
71038;SDS011;58692;43.212;27.908;2023-08-21T10:07:11;13.05;;;5.30;;
71038;SDS011;58692;43.212;27.908;2023-08-21T10:09:39;9.35;;;5.38;;
71038;SDS011;58692;43.212;27.908;2023-08-21T10:12:08;10.27;;;5.47;;
71038;SDS011;58692;43.212;27.908;2023-08-21T10:14:34;11.02;;;5.30;;
71038;SDS011;58692;43.212;27.908;2023-08-21T10:17:01;11.40;;;5.20;;
71038;SDS011;58692;43.212;27.908;2023-08-21T10:19:34;8.15;;;5.03;;
71038;SDS011;58692;43.212;27.908;2023-08-21T10:22:00;9.80;;;5.28;;
71038;SDS011;58692;43.212;27.908;2023-08-21T10:24:28;8.90;;;5.13;;
71038;SDS011;58692;43.212;27.908;2023-08-21T10:27:00;10.50;;;5.90;;
71038;SDS011;58692;43.212;27.908;2023-08-21T10:29:26;9.05;;;5.43;;
71038;SDS011;58692;43.212;27.908;2023-08-21T10:31:59;9.90;;;5.57;;
71038;SDS011;58692;43.212;27.908;2023-08-21T10:34:31;11.37;;;5.33;;
71038;SDS011;58692;43.212;27.908;2023-08-21T10:37:06;11.00;;;5.32;;
71038;SDS011;58692;43.212;27.908;2023-08-21T10:39:34;10.57;;;5.15;;
71038;SDS011;58692;43.212;27.908;2023-08-21T10:42:10;10.27;;;5.18;;
71038;SDS011;58692;43.212;27.908;2023-08-21T10:44:47;10.20;;;5.63;;
71038;SDS011;58692;43.212;27.908;2023-08-21T10:49:48;10.82;;;5.55;;
71038;SDS011;58692;43.212;27.908;2023-08-21T10:52:19;11.15;;;5.18;;
71038;SDS011;58692;43.212;27.908;2023-08-21T10:54:48;11.32;;;5.35;;
71038;SDS011;58692;43.212;27.908;2023-08-21T10:57:15;13.40;;;5.60;;
71038;SDS011;58692;43.212;27.908;2023-08-21T11:02:23;10.18;;;5.10;;
71038;SDS011;58692;43.212;27.908;2023-08-21T11:04:51;12.25;;;5.53;;
71038;SDS011;58692;43.212;27.908;2023-08-21T11:07:17;10.80;;;5.47;;
71038;SDS011;58692;43.212;27.908;2023-08-21T11:09:43;9.82;;;5.50;;
71038;SDS011;58692;43.212;27.908;2023-08-21T11:12:10;9.90;;;6.20;;
71038;SDS011;58692;43.212;27.908;2023-08-21T11:14:37;10.23;;;6.18;;
71038;SDS011;58692;43.212;27.908;2023-08-21T11:17:03;9.48;;;6.35;;
71038;SDS011;58692;43.212;27.908;2023-08-21T11:19:30;10.77;;;6.80;;
71038;SDS011;58692;43.212;27.908;2023-08-21T11:21:56;9.80;;;6.23;;
71038;SDS011;58692;43.212;27.908;2023-08-21T11:24:29;12.80;;;6.65;;
71038;SDS011;58692;43.212;27.908;2023-08-21T11:26:57;12.82;;;6.50;;
71038;SDS011;58692;43.212;27.908;2023-08-21T11:29:23;10.82;;;7.15;;
71038;SDS011;58692;43.212;27.908;2023-08-21T11:31:49;13.98;;;7.32;;
71038;SDS011;58692;43.212;27.908;2023-08-21T11:34:18;12.33;;;7.20;;
71038;SDS011;58692;43.212;27.908;2023-08-21T11:36:44;12.40;;;7.13;;
71038;SDS011;58692;43.212;27.908;2023-08-21T11:39:10;12.50;;;7.53;;
71038;SDS011;58692;43.212;27.908;2023-08-21T11:44:18;12.77;;;7.53;;
71038;SDS011;58692;43.212;27.908;2023-08-21T11:46:45;11.13;;;7.38;;
71038;SDS011;58692;43.212;27.908;2023-08-21T11:49:10;11.87;;;7.33;;
71038;SDS011;58692;43.212;27.908;2023-08-21T11:51:39;10.43;;;7.35;;
71038;SDS011;58692;43.212;27.908;2023-08-21T11:54:05;15.37;;;7.93;;
71038;SDS011;58692;43.212;27.908;2023-08-21T11:56:31;13.65;;;7.70;;
71038;SDS011;58692;43.212;27.908;2023-08-21T11:58:56;12.52;;;6.90;;
71038;SDS011;58692;43.212;27.908;2023-08-21T12:01:24;12.17;;;6.80;;
71038;SDS011;58692;43.212;27.908;2023-08-21T12:03:50;11.98;;;7.18;;
71038;SDS011;58692;43.212;27.908;2023-08-21T12:06:19;10.70;;;7.20;;
71038;SDS011;58692;43.212;27.908;2023-08-21T12:08:45;15.77;;;7.80;;
71038;SDS011;58692;43.212;27.908;2023-08-21T12:11:10;14.13;;;7.25;;
71038;SDS011;58692;43.212;27.908;2023-08-21T12:13:36;11.57;;;7.37;;
71038;SDS011;58692;43.212;27.908;2023-08-21T12:16:02;13.02;;;7.35;;
71038;SDS011;58692;43.212;27.908;2023-08-21T12:18:28;14.00;;;7.50;;
71038;SDS011;58692;43.212;27.908;2023-08-21T12:20:54;11.07;;;7.20;;
71038;SDS011;58692;43.212;27.908;2023-08-21T12:23:19;14.00;;;7.10;;
71038;SDS011;58692;43.212;27.908;2023-08-21T12:25:45;12.90;;;7.30;;
71038;SDS011;58692;43.212;27.908;2023-08-21T12:28:11;12.65;;;7.50;;
71038;SDS011;58692;43.212;27.908;2023-08-21T12:30:36;11.13;;;7.73;;
71038;SDS011;58692;43.212;27.908;2023-08-21T12:33:02;12.93;;;7.90;;
71038;SDS011;58692;43.212;27.908;2023-08-21T12:35:28;14.95;;;7.55;;
71038;SDS011;58692;43.212;27.908;2023-08-21T12:37:55;13.60;;;7.72;;
71038;SDS011;58692;43.212;27.908;2023-08-21T12:40:22;16.95;;;8.25;;
71038;SDS011;58692;43.212;27.908;2023-08-21T12:42:48;12.33;;;8.20;;
71038;SDS011;58692;43.212;27.908;2023-08-21T12:45:13;12.75;;;7.30;;
71038;SDS011;58692;43.212;27.908;2023-08-21T12:47:39;13.17;;;7.80;;
71038;SDS011;58692;43.212;27.908;2023-08-21T12:50:05;12.17;;;8.30;;
71038;SDS011;58692;43.212;27.908;2023-08-21T12:52:32;13.83;;;7.30;;
71038;SDS011;58692;43.212;27.908;2023-08-21T12:54:58;13.25;;;8.13;;
71038;SDS011;58692;43.212;27.908;2023-08-21T12:57:24;11.52;;;8.00;;
71038;SDS011;58692;43.212;27.908;2023-08-21T12:59:51;13.30;;;7.60;;
71038;SDS011;58692;43.212;27.908;2023-08-21T13:02:17;12.93;;;7.75;;
71038;SDS011;58692;43.212;27.908;2023-08-21T13:04:43;14.15;;;8.02;;
71038;SDS011;58692;43.212;27.908;2023-08-21T13:07:09;13.65;;;7.97;;
71038;SDS011;58692;43.212;27.908;2023-08-21T13:09:35;12.53;;;7.53;;
71038;SDS011;58692;43.212;27.908;2023-08-21T13:12:04;16.17;;;7.88;;
71038;SDS011;58692;43.212;27.908;2023-08-21T13:14:29;13.77;;;7.70;;
71038;SDS011;58692;43.212;27.908;2023-08-21T13:16:55;14.60;;;7.90;;
71038;SDS011;58692;43.212;27.908;2023-08-21T13:19:21;12.53;;;8.13;;
71038;SDS011;58692;43.212;27.908;2023-08-21T13:21:46;14.10;;;7.70;;
71038;SDS011;58692;43.212;27.908;2023-08-21T13:24:12;16.13;;;7.43;;
71038;SDS011;58692;43.212;27.908;2023-08-21T13:26:37;13.70;;;7.93;;
71038;SDS011;58692;43.212;27.908;2023-08-21T13:29:03;14.48;;;7.97;;
71038;SDS011;58692;43.212;27.908;2023-08-21T13:31:28;20.03;;;7.90;;
71038;SDS011;58692;43.212;27.908;2023-08-21T13:33:54;11.85;;;7.55;;
71038;SDS011;58692;43.212;27.908;2023-08-21T13:36:19;14.00;;;7.33;;
71038;SDS011;58692;43.212;27.908;2023-08-21T13:38:46;15.45;;;7.55;;
71038;SDS011;58692;43.212;27.908;2023-08-21T13:41:12;12.67;;;7.60;;
71038;SDS011;58692;43.212;27.908;2023-08-21T13:43:38;12.90;;;7.40;;
71038;SDS011;58692;43.212;27.908;2023-08-21T13:46:04;12.90;;;7.60;;
71038;SDS011;58692;43.212;27.908;2023-08-21T13:48:30;15.67;;;7.50;;
71038;SDS011;58692;43.212;27.908;2023-08-21T13:50:56;14.07;;;7.65;;
71038;SDS011;58692;43.212;27.908;2023-08-21T13:53:22;13.25;;;7.47;;
71038;SDS011;58692;43.212;27.908;2023-08-21T13:55:47;16.00;;;7.60;;
71038;SDS011;58692;43.212;27.908;2023-08-21T13:58:13;12.43;;;8.10;;
71038;SDS011;58692;43.212;27.908;2023-08-21T14:00:39;14.43;;;8.00;;
71038;SDS011;58692;43.212;27.908;2023-08-21T14:03:04;13.30;;;7.88;;
71038;SDS011;58692;43.212;27.908;2023-08-21T14:05:30;13.17;;;7.87;;
71038;SDS011;58692;43.212;27.908;2023-08-21T14:07:56;12.73;;;8.07;;
71038;SDS011;58692;43.212;27.908;2023-08-21T14:10:22;13.70;;;7.63;;
71038;SDS011;58692;43.212;27.908;2023-08-21T14:12:48;11.27;;;7.87;;
71038;SDS011;58692;43.212;27.908;2023-08-21T14:15:14;15.33;;;7.40;;
71038;SDS011;58692;43.212;27.908;2023-08-21T14:17:39;13.10;;;7.63;;
71038;SDS011;58692;43.212;27.908;2023-08-21T14:20:05;11.82;;;7.47;;
71038;SDS011;58692;43.212;27.908;2023-08-21T14:22:32;13.90;;;7.20;;
71038;SDS011;58692;43.212;27.908;2023-08-21T14:24:58;13.27;;;7.57;;
71038;SDS011;58692;43.212;27.908;2023-08-21T14:27:24;16.08;;;7.40;;